createdAt,value
2019-02-04T00:01:12.539Z,7.47
2019-02-04T00:03:41.691Z,7.97
2019-02-04T00:06:11.424Z,8.67
2019-02-04T00:08:40.660Z,7.83
2019-02-04T00:11:09.941Z,7.87
2019-02-04T00:13:39.260Z,7.30
2019-02-04T00:16:08.693Z,7.13
2019-02-04T00:18:37.923Z,7.80
2019-02-04T00:21:07.189Z,9.30
2019-02-04T00:23:36.430Z,9.20
2019-02-04T00:26:05.804Z,8.70
2019-02-04T00:28:35.114Z,9.80
2019-02-04T00:31:05.188Z,11.43
2019-02-04T00:33:34.640Z,15.43
2019-02-04T00:36:04.112Z,9.80
2019-02-04T00:38:33.443Z,7.63
2019-02-04T00:41:02.839Z,7.87
2019-02-04T00:43:32.091Z,7.43
2019-02-04T00:46:01.319Z,6.90
2019-02-04T00:48:30.990Z,7.67
2019-02-04T00:51:00.224Z,7.23
2019-02-04T00:53:29.563Z,8.17
2019-02-04T00:55:58.835Z,8.47
2019-02-04T00:58:28.104Z,8.90
2019-02-04T01:00:57.332Z,8.07
2019-02-04T01:03:26.891Z,7.40
2019-02-04T01:05:56.050Z,6.70
2019-02-04T01:08:25.473Z,7.67
2019-02-04T01:10:54.841Z,6.90
2019-02-04T01:13:24.094Z,7.90
2019-02-04T01:15:53.326Z,6.40
2019-02-04T01:18:22.884Z,7.60
2019-02-04T01:20:52.115Z,6.90
2019-02-04T01:23:21.376Z,6.90
2019-02-04T01:25:50.539Z,7.40
2019-02-04T01:28:19.935Z,7.37
2019-02-04T01:30:49.235Z,6.77
2019-02-04T01:33:18.526Z,7.77
2019-02-04T01:35:47.860Z,8.57
2019-02-04T01:38:17.196Z,8.10
2019-02-04T01:40:46.432Z,7.27
2019-02-04T01:43:15.777Z,7.97
2019-02-04T01:45:45.417Z,8.17
2019-02-04T01:48:14.770Z,8.57
2019-02-04T01:50:44.010Z,8.70
2019-02-04T01:53:13.347Z,7.63
2019-02-04T01:55:42.646Z,8.07
2019-02-04T01:58:12.085Z,9.17
2019-02-04T02:00:41.695Z,8.97
2019-02-04T02:03:10.943Z,7.63
2019-02-04T02:05:40.127Z,7.73
2019-02-04T02:08:10.191Z,7.80
2019-02-04T02:10:39.516Z,7.43
2019-02-04T02:13:08.853Z,8.37
2019-02-04T02:15:38.082Z,8.63
2019-02-04T02:18:07.371Z,7.90
2019-02-04T02:20:36.788Z,9.03
2019-02-04T02:23:06.038Z,8.73
2019-02-04T02:25:35.271Z,9.73
2019-02-04T02:28:05.232Z,9.17
2019-02-04T02:30:34.958Z,8.93
2019-02-04T02:33:04.214Z,10.37
2019-02-04T02:35:33.472Z,9.07
2019-02-04T02:38:02.784Z,8.73
2019-02-04T02:40:34.057Z,9.50
2019-02-04T02:43:03.571Z,9.80
2019-02-04T02:45:32.836Z,8.00
2019-02-04T02:48:02.128Z,8.50
2019-02-04T02:50:31.386Z,8.30
2019-02-04T02:53:00.624Z,8.87
2019-02-04T02:55:29.968Z,8.33
2019-02-04T02:57:59.483Z,8.70
2019-02-04T03:00:29.473Z,8.57
2019-02-04T03:02:58.791Z,8.50
2019-02-04T03:05:28.177Z,8.13
2019-02-04T03:07:57.493Z,8.13
2019-02-04T03:10:30.607Z,7.97
2019-02-04T03:12:59.978Z,8.43
2019-02-04T03:15:29.331Z,8.97
2019-02-04T03:17:58.566Z,9.13
2019-02-04T03:20:27.827Z,8.77
2019-02-04T03:22:57.000Z,9.43
2019-02-04T03:25:26.598Z,9.17
2019-02-04T03:27:55.861Z,9.93
2019-02-04T03:30:33.947Z,11.23
2019-02-04T03:33:03.255Z,11.03
2019-02-04T03:35:32.666Z,11.60
2019-02-04T03:38:02.303Z,10.63
2019-02-04T03:40:33.192Z,11.57
2019-02-04T03:43:02.427Z,12.10
2019-02-04T03:45:31.615Z,13.60
2019-02-04T03:48:06.128Z,13.83
2019-02-04T03:50:31.883Z,12.23
2019-02-04T03:53:01.275Z,10.33
2019-02-04T03:55:30.543Z,10.10
2019-02-04T03:57:59.835Z,9.80
2019-02-04T04:00:34.333Z,9.83
2019-02-04T04:03:03.615Z,10.00
2019-02-04T04:05:32.870Z,9.90
2019-02-04T04:08:02.028Z,10.50
2019-02-04T04:10:31.293Z,11.43
2019-02-04T04:13:00.564Z,11.47
2019-02-04T04:15:29.812Z,12.77
2019-02-04T04:17:59.421Z,13.40
2019-02-04T04:20:28.752Z,14.13
2019-02-04T04:22:57.988Z,12.23
2019-02-04T04:25:30.790Z,12.17
2019-02-04T04:28:00.027Z,12.43
2019-02-04T04:30:29.707Z,13.40
2019-02-04T04:32:59.242Z,12.13
2019-02-04T04:35:28.500Z,11.83
2019-02-04T04:37:57.804Z,11.10
2019-02-04T04:40:27.064Z,11.63
2019-02-04T04:42:56.382Z,11.43
2019-02-04T04:45:25.949Z,11.27
2019-02-04T04:47:55.211Z,10.87
2019-02-04T04:50:24.480Z,10.10
2019-02-04T04:52:53.716Z,11.67
2019-02-04T04:55:24.995Z,11.13
2019-02-04T04:57:54.456Z,10.90
2019-02-04T05:00:26.322Z,11.87
2019-02-04T05:02:55.895Z,11.17
2019-02-04T05:05:25.231Z,12.40
2019-02-04T05:07:54.389Z,13.33
2019-02-04T05:10:23.870Z,12.90
2019-02-04T05:12:53.161Z,14.20
2019-02-04T05:15:27.004Z,15.93
2019-02-04T05:17:56.264Z,15.77
2019-02-04T05:20:25.498Z,14.13
2019-02-04T05:22:55.351Z,15.20
2019-02-04T05:25:24.526Z,13.97
2019-02-04T05:27:54.143Z,14.33
2019-02-04T05:30:24.568Z,15.73
2019-02-04T05:32:53.903Z,15.97
2019-02-04T05:35:23.136Z,17.00
2019-02-04T05:37:52.470Z,16.17
2019-02-04T05:40:21.660Z,19.57
2019-02-04T05:42:50.934Z,21.43
2019-02-04T05:45:20.997Z,20.87
2019-02-04T05:47:50.287Z,21.93
2019-02-04T05:50:20.180Z,22.70
2019-02-04T05:52:49.603Z,22.13
2019-02-04T05:55:20.319Z,21.43
2019-02-04T05:57:49.504Z,21.53
2019-02-04T06:00:24.315Z,22.57
2019-02-04T06:02:53.503Z,20.93
2019-02-04T06:05:22.842Z,21.30
2019-02-04T06:07:52.105Z,20.53
2019-02-04T06:10:21.531Z,21.10
2019-02-04T06:12:50.827Z,19.67
2019-02-04T06:15:19.987Z,20.50
2019-02-04T06:17:49.260Z,19.63
2019-02-04T06:20:19.575Z,20.03
2019-02-04T06:22:48.830Z,20.90
2019-02-04T06:25:17.996Z,22.87
2019-02-04T06:27:47.274Z,22.63
2019-02-04T06:30:16.828Z,22.73
2019-02-04T06:32:46.184Z,25.20
2019-02-04T06:35:16.318Z,21.57
2019-02-04T06:37:46.938Z,21.43
2019-02-04T06:40:16.515Z,21.47
2019-02-04T06:42:45.779Z,23.27
2019-02-04T06:45:15.736Z,22.90
2019-02-04T06:47:45.119Z,23.53
2019-02-04T06:50:16.162Z,24.90
2019-02-04T06:52:45.618Z,24.53
2019-02-04T06:55:17.637Z,25.50
2019-02-04T06:57:46.891Z,27.47
2019-02-04T07:00:16.855Z,31.33
2019-02-04T07:02:46.227Z,28.63
2019-02-04T07:05:16.288Z,28.07
2019-02-04T07:07:45.547Z,25.97
2019-02-04T07:10:17.215Z,26.83
2019-02-04T07:12:46.743Z,24.80
2019-02-04T07:15:15.990Z,26.27
2019-02-04T07:17:45.249Z,31.63
2019-02-04T07:20:18.087Z,27.40
2019-02-04T07:22:47.348Z,27.80
2019-02-04T07:25:17.007Z,28.40
2019-02-04T07:27:46.350Z,28.27
2019-02-04T07:30:17.855Z,26.83
2019-02-04T07:32:47.179Z,27.87
2019-02-04T07:35:17.267Z,27.70
2019-02-04T07:37:46.803Z,28.47
2019-02-04T07:40:21.513Z,30.03
2019-02-04T07:42:51.422Z,28.67
2019-02-04T07:45:20.955Z,27.77
2019-02-04T07:47:50.819Z,29.50
2019-02-04T07:50:20.280Z,28.33
2019-02-04T07:52:49.509Z,30.37
2019-02-04T07:55:18.771Z,26.77
2019-02-04T07:57:48.079Z,28.23
2019-02-04T08:00:20.123Z,27.23
2019-02-04T08:02:49.684Z,29.10
2019-02-04T08:05:18.912Z,26.73
2019-02-04T08:07:48.148Z,28.50
2019-02-04T08:10:17.667Z,27.43
2019-02-04T08:12:46.992Z,28.23
2019-02-04T08:15:21.553Z,27.03
2019-02-04T08:17:50.863Z,26.53
2019-02-04T08:20:22.547Z,28.57
2019-02-04T08:22:50.999Z,27.97
2019-02-04T08:25:20.434Z,27.87
2019-02-04T08:27:49.797Z,28.00
2019-02-04T08:30:28.163Z,27.63
2019-02-04T08:32:57.675Z,27.60
2019-02-04T08:35:26.940Z,28.43
2019-02-04T08:37:56.172Z,27.73
2019-02-04T08:40:25.520Z,27.93
2019-02-04T08:42:55.372Z,28.20
2019-02-04T08:45:24.619Z,28.03
2019-02-04T08:47:53.947Z,27.63
2019-02-04T08:50:23.694Z,27.93
2019-02-04T08:52:52.937Z,26.80
2019-02-04T08:55:22.195Z,29.50
2019-02-04T08:57:51.922Z,28.27
2019-02-04T09:00:21.759Z,26.60
2019-02-04T09:02:51.223Z,26.57
2019-02-04T09:05:21.251Z,27.10
2019-02-04T09:07:50.766Z,31.17
2019-02-04T09:10:26.664Z,28.00
2019-02-04T09:12:56.101Z,27.80
2019-02-04T09:15:25.535Z,29.13
2019-02-04T09:17:54.761Z,27.63
2019-02-04T09:20:24.213Z,29.27
2019-02-04T09:22:53.442Z,31.37
2019-02-04T09:25:24.659Z,30.43
2019-02-04T09:27:54.188Z,28.67
2019-02-04T09:30:24.872Z,30.67
2019-02-04T09:32:55.358Z,29.93
2019-02-04T09:35:24.717Z,30.37
2019-02-04T09:37:54.060Z,29.67
2019-02-04T09:40:46.435Z,30.10
2019-02-04T09:43:15.679Z,30.00
2019-02-04T09:45:45.530Z,29.47
2019-02-04T09:48:18.031Z,30.00
2019-02-04T09:50:48.884Z,29.90
2019-02-04T09:53:18.125Z,30.30
2019-02-04T09:55:47.379Z,32.03
2019-02-04T09:58:16.647Z,30.50
2019-02-04T10:00:46.051Z,30.90
2019-02-04T10:03:15.217Z,29.60
2019-02-04T10:05:44.876Z,31.50
2019-02-04T10:08:14.311Z,29.90
2019-02-04T10:10:43.502Z,30.90
2019-02-04T10:13:12.732Z,32.43
2019-02-04T10:15:43.706Z,32.77
2019-02-04T10:18:13.321Z,30.77
2019-02-04T10:20:42.711Z,29.87
2019-02-04T10:23:12.018Z,32.43
2019-02-04T10:25:42.738Z,32.40
2019-02-04T10:28:13.120Z,27.50
2019-02-04T10:30:42.593Z,24.43
2019-02-04T10:33:12.667Z,27.63
2019-02-04T10:35:42.262Z,24.83
2019-02-04T10:38:11.497Z,28.30
2019-02-04T10:40:40.809Z,26.70
2019-02-04T10:43:10.206Z,27.77
2019-02-04T10:45:39.481Z,26.50
2019-02-04T10:48:09.519Z,28.03
2019-02-04T10:50:46.087Z,27.50
2019-02-04T10:53:11.002Z,28.77
2019-02-04T10:55:40.330Z,25.97
2019-02-04T10:58:11.893Z,27.50
2019-02-04T11:00:41.559Z,27.77
2019-02-04T11:03:11.228Z,28.30
2019-02-04T11:05:41.151Z,27.97
2019-02-04T11:08:11.768Z,24.67
2019-02-04T11:10:42.064Z,28.37
2019-02-04T11:13:16.313Z,25.43
2019-02-04T11:15:47.465Z,26.23
2019-02-04T11:18:17.213Z,23.90
2019-02-04T11:20:57.841Z,25.47
2019-02-04T11:23:17.886Z,25.13
2019-02-04T11:25:47.607Z,22.23
2019-02-04T11:28:17.253Z,25.47
2019-02-04T11:30:52.948Z,21.30
2019-02-04T11:33:22.335Z,25.13
2019-02-04T11:35:51.903Z,23.10
2019-02-04T11:38:21.293Z,25.00
2019-02-04T11:40:51.117Z,25.10
2019-02-04T11:43:20.433Z,22.50
2019-02-04T11:45:49.794Z,21.00
2019-02-04T11:48:19.586Z,23.83
2019-02-04T11:50:49.004Z,20.77
2019-02-04T11:53:18.343Z,22.07
2019-02-04T11:55:47.947Z,21.03
2019-02-04T11:58:17.233Z,21.63
2019-02-04T12:00:46.547Z,18.40
2019-02-04T12:03:17.264Z,19.97
2019-02-04T12:05:46.554Z,19.20
2019-02-04T12:08:17.816Z,21.27
2019-02-04T12:10:50.572Z,17.37
2019-02-04T12:13:20.038Z,18.77
2019-02-04T12:15:49.287Z,16.90
2019-02-04T12:18:18.538Z,19.47
2019-02-04T12:20:47.711Z,16.83
2019-02-04T12:23:16.964Z,16.40
2019-02-04T12:25:46.243Z,18.90
2019-02-04T12:28:15.480Z,16.13
2019-02-04T12:30:45.447Z,15.97
2019-02-04T12:33:14.747Z,16.50
2019-02-04T12:35:44.016Z,15.83
2019-02-04T12:38:13.760Z,14.00
2019-02-04T12:40:43.020Z,13.27
2019-02-04T12:43:12.427Z,15.30
2019-02-04T12:45:43.115Z,16.43
2019-02-04T12:48:12.295Z,14.23
2019-02-04T12:50:41.659Z,13.90
2019-02-04T12:53:11.300Z,14.80
2019-02-04T12:55:40.571Z,14.57
2019-02-04T12:58:10.028Z,15.40
2019-02-04T13:00:39.468Z,15.90
2019-02-04T13:03:08.690Z,16.20
2019-02-04T13:05:43.697Z,14.10
2019-02-04T13:08:13.720Z,13.67
2019-02-04T13:10:43.092Z,13.33
2019-02-04T13:13:14.853Z,13.70
2019-02-04T13:15:44.152Z,13.60
2019-02-04T13:18:13.604Z,12.93
2019-02-04T13:20:43.269Z,15.40
2019-02-04T13:23:12.711Z,15.33
2019-02-04T13:25:42.069Z,12.27
2019-02-04T13:28:14.725Z,14.50
2019-02-04T13:30:43.980Z,12.43
2019-02-04T13:33:13.205Z,14.93
2019-02-04T13:35:42.486Z,12.73
2019-02-04T13:38:11.789Z,14.57
2019-02-04T13:40:44.506Z,13.27
2019-02-04T13:43:13.751Z,12.73
2019-02-04T13:45:43.618Z,15.07
2019-02-04T13:48:13.565Z,13.43
2019-02-04T13:50:42.811Z,14.97
2019-02-04T13:53:12.043Z,15.87
2019-02-04T13:55:41.615Z,17.57
2019-02-04T13:58:10.884Z,15.77
2019-02-04T14:00:40.111Z,19.70
2019-02-04T14:03:10.176Z,16.97
2019-02-04T14:05:39.516Z,16.07
2019-02-04T14:08:09.035Z,19.20
2019-02-04T14:10:40.765Z,16.43
2019-02-04T14:13:10.295Z,16.57
2019-02-04T14:15:40.716Z,19.33
2019-02-04T14:18:10.658Z,15.87
2019-02-04T14:20:40.187Z,17.93
2019-02-04T14:23:09.537Z,17.30
2019-02-04T14:25:38.834Z,18.17
2019-02-04T14:28:08.108Z,16.27
2019-02-04T14:30:38.354Z,16.07
2019-02-04T14:33:08.011Z,17.93
2019-02-04T14:35:37.335Z,15.80
2019-02-04T14:38:08.064Z,17.53
2019-02-04T14:40:37.857Z,15.43
2019-02-04T14:43:37.819Z,15.27
2019-02-04T14:46:43.108Z,16.83
2019-02-04T14:49:59.825Z,17.07
2019-02-04T14:52:57.795Z,15.33
2019-02-04T14:56:19.927Z,15.23
2019-02-04T14:59:01.811Z,16.73
2019-02-04T15:02:36.487Z,15.33
2019-02-04T15:05:54.091Z,17.00
2019-02-04T15:08:49.069Z,17.23
2019-02-04T15:11:36.880Z,15.50
2019-02-04T15:15:05.673Z,14.40
2019-02-04T15:18:25.120Z,17.33
2019-02-04T15:21:32.270Z,15.90
2019-02-04T15:24:54.831Z,17.23
2019-02-04T15:28:06.067Z,15.93
2019-02-04T15:31:19.931Z,17.53
2019-02-04T15:33:54.112Z,14.53
2019-02-04T15:36:58.819Z,17.07
2019-02-04T15:40:05.960Z,16.33
2019-02-04T15:43:12.298Z,16.33
2019-02-04T15:46:18.078Z,16.90
2019-02-04T15:49:30.847Z,16.43
2019-02-04T15:52:01.078Z,16.00
2019-02-04T15:54:30.411Z,16.83
2019-02-04T15:56:59.721Z,16.07
2019-02-04T15:59:28.945Z,16.57
2019-02-04T16:01:58.444Z,16.43
2019-02-04T16:04:29.647Z,16.77
2019-02-04T16:06:58.878Z,15.80
2019-02-04T16:09:28.570Z,15.67
2019-02-04T16:11:57.912Z,16.50
2019-02-04T16:14:27.274Z,16.13
2019-02-04T16:16:56.835Z,15.50
2019-02-04T16:19:26.062Z,15.93
2019-02-04T16:21:55.262Z,16.67
2019-02-04T16:24:24.563Z,15.07
2019-02-04T16:26:53.826Z,14.87
2019-02-04T16:29:22.992Z,15.43
2019-02-04T16:31:52.528Z,13.60
2019-02-04T16:34:24.057Z,13.07
2019-02-04T16:36:52.674Z,14.03
2019-02-04T16:39:21.974Z,12.03
2019-02-04T16:41:51.247Z,13.43
2019-02-04T16:44:20.485Z,13.07
2019-02-04T16:46:49.827Z,12.80
2019-02-04T16:49:19.171Z,12.67
2019-02-04T16:51:48.555Z,14.03
2019-02-04T16:54:17.808Z,13.13
2019-02-04T16:56:47.068Z,12.80
2019-02-04T16:59:16.490Z,13.10
2019-02-04T17:01:45.818Z,12.80
2019-02-04T17:04:14.977Z,12.53
2019-02-04T17:06:44.313Z,12.17
2019-02-04T17:09:14.007Z,14.67
2019-02-04T17:11:43.259Z,12.13
2019-02-04T17:14:12.449Z,12.30
2019-02-04T17:16:41.712Z,12.63
2019-02-04T17:19:10.967Z,12.70
2019-02-04T17:21:40.226Z,14.10
2019-02-04T17:24:09.467Z,13.80
2019-02-04T17:26:38.740Z,13.30
2019-02-04T17:29:08.061Z,14.30
2019-02-04T17:31:37.327Z,13.17
2019-02-04T17:34:06.564Z,13.60
2019-02-04T17:36:35.840Z,13.57
2019-02-04T17:39:08.192Z,13.43
2019-02-04T17:41:37.612Z,13.73
2019-02-04T17:44:07.519Z,13.03
2019-02-04T17:46:36.783Z,13.07
2019-02-04T17:49:06.046Z,13.90
2019-02-04T17:51:35.389Z,13.60
2019-02-04T17:54:05.283Z,13.37
2019-02-04T17:56:34.655Z,14.37
2019-02-04T17:59:04.791Z,13.90
2019-02-04T18:01:34.130Z,13.50
2019-02-04T18:04:03.489Z,13.30
2019-02-04T18:06:32.806Z,13.70
2019-02-04T18:09:02.201Z,13.30
2019-02-04T18:11:31.507Z,14.10
2019-02-04T18:14:00.930Z,13.57
2019-02-04T18:16:30.171Z,13.50
2019-02-04T18:18:59.504Z,13.97
2019-02-04T18:21:28.823Z,13.33
2019-02-04T18:23:58.083Z,13.40
2019-02-04T18:26:27.832Z,12.37
2019-02-04T18:28:57.469Z,12.90
2019-02-04T18:31:26.711Z,12.67
2019-02-04T18:33:56.383Z,13.23
2019-02-04T18:36:25.754Z,13.17
2019-02-04T18:38:55.379Z,12.70
2019-02-04T18:41:24.726Z,13.47
2019-02-04T18:43:54.117Z,13.83
2019-02-04T18:46:23.423Z,16.27
2019-02-04T18:48:52.723Z,16.87
2019-02-04T18:51:21.967Z,17.27
2019-02-04T18:53:57.762Z,17.13
2019-02-04T18:56:22.178Z,17.63
2019-02-04T18:58:51.580Z,14.40
2019-02-04T19:01:20.888Z,17.07
2019-02-04T19:03:50.231Z,16.93
2019-02-04T19:06:19.549Z,21.33
2019-02-04T19:08:49.012Z,16.60
2019-02-04T19:11:18.260Z,15.33
2019-02-04T19:13:47.523Z,15.33
2019-02-04T19:16:16.765Z,14.67
2019-02-04T19:18:46.068Z,15.53
2019-02-04T19:21:15.346Z,14.67
2019-02-04T19:23:44.906Z,13.97
2019-02-04T19:26:14.367Z,14.67
2019-02-04T19:28:43.698Z,15.67
2019-02-04T19:31:16.531Z,16.13
2019-02-04T19:33:45.794Z,15.30
2019-02-04T19:36:15.130Z,14.73
2019-02-04T19:38:46.071Z,14.60
2019-02-04T19:41:15.344Z,15.10
2019-02-04T19:43:44.604Z,14.77
2019-02-04T19:46:13.834Z,13.27
2019-02-04T19:48:43.288Z,15.00
2019-02-04T19:51:12.503Z,14.13
2019-02-04T19:53:41.768Z,13.80
2019-02-04T19:56:11.104Z,13.50
2019-02-04T19:58:40.439Z,12.97
2019-02-04T20:01:09.747Z,13.67
2019-02-04T20:03:39.372Z,14.73
2019-02-04T20:06:08.872Z,12.73
2019-02-04T20:08:38.112Z,13.20
2019-02-04T20:11:07.400Z,13.40
2019-02-04T20:13:36.627Z,13.23
2019-02-04T20:16:05.992Z,13.57
2019-02-04T20:18:35.229Z,13.03
2019-02-04T20:21:04.966Z,13.77
2019-02-04T20:23:34.212Z,13.33
2019-02-04T20:26:03.547Z,13.97
2019-02-04T20:28:32.857Z,13.27
2019-02-04T20:31:02.124Z,13.80
2019-02-04T20:33:31.440Z,13.77
2019-02-04T20:36:00.779Z,14.80
2019-02-04T20:38:30.238Z,13.40
2019-02-04T20:40:59.548Z,13.30
2019-02-04T20:43:28.878Z,12.37
2019-02-04T20:45:58.882Z,12.83
2019-02-04T20:48:28.210Z,12.33
2019-02-04T20:51:00.045Z,11.50
2019-02-04T20:53:28.326Z,12.13
2019-02-04T20:55:57.624Z,11.83
2019-02-04T20:58:26.831Z,11.73
2019-02-04T21:00:56.202Z,11.10
2019-02-04T21:03:25.427Z,9.80
2019-02-04T21:05:54.607Z,9.67
2019-02-04T21:08:23.839Z,9.87
2019-02-04T21:10:53.108Z,10.57
2019-02-04T21:13:22.338Z,10.23
2019-02-04T21:15:51.528Z,9.67
2019-02-04T21:18:20.774Z,9.33
2019-02-04T21:20:50.043Z,10.10
2019-02-04T21:23:19.482Z,9.73
2019-02-04T21:25:48.806Z,11.20
2019-02-04T21:28:18.121Z,10.83
2019-02-04T21:30:47.415Z,10.97
2019-02-04T21:33:16.655Z,10.83
2019-02-04T21:35:45.945Z,11.20
2019-02-04T21:38:15.166Z,10.43
2019-02-04T21:40:44.349Z,10.67
2019-02-04T21:43:13.588Z,10.57
2019-02-04T21:45:42.779Z,10.00
2019-02-04T21:48:12.070Z,10.10
2019-02-04T21:50:41.375Z,10.63
2019-02-04T21:53:10.749Z,10.00
2019-02-04T21:55:40.008Z,9.90
2019-02-04T21:58:09.413Z,10.77
2019-02-04T22:00:40.319Z,10.10
2019-02-04T22:03:09.579Z,9.57
2019-02-04T22:05:38.919Z,10.10
2019-02-04T22:08:08.395Z,10.67
2019-02-04T22:10:37.675Z,10.20
2019-02-04T22:13:07.014Z,10.30
2019-02-04T22:15:36.658Z,10.17
2019-02-04T22:18:06.923Z,9.97
2019-02-04T22:20:36.451Z,9.90
2019-02-04T22:23:05.794Z,10.23
2019-02-04T22:25:35.102Z,9.97
2019-02-04T22:28:04.747Z,9.40
2019-02-04T22:30:33.984Z,10.77
2019-02-04T22:33:03.326Z,10.60
2019-02-04T22:35:32.699Z,10.20
2019-02-04T22:38:02.261Z,9.47
2019-02-04T22:40:31.564Z,11.67
2019-02-04T22:43:00.901Z,10.50
2019-02-04T22:45:30.129Z,11.63
2019-02-04T22:47:59.389Z,10.77
2019-02-04T22:50:30.870Z,11.13
2019-02-04T22:53:02.315Z,9.23
2019-02-04T22:55:32.574Z,10.87
2019-02-04T22:58:02.153Z,10.70
2019-02-04T23:00:48.476Z,10.70
2019-02-04T23:03:19.236Z,10.60
2019-02-04T23:05:48.483Z,10.50
2019-02-04T23:08:17.911Z,10.27
2019-02-04T23:10:47.211Z,11.13
2019-02-04T23:13:16.401Z,10.00
2019-02-04T23:15:45.722Z,10.40
2019-02-04T23:18:15.584Z,10.50
2019-02-04T23:20:44.918Z,10.63
2019-02-04T23:23:14.179Z,10.00
2019-02-04T23:25:43.944Z,10.20
2019-02-04T23:28:13.274Z,10.20
2019-02-04T23:30:42.504Z,10.60
2019-02-04T23:33:11.792Z,11.43
2019-02-04T23:35:41.014Z,8.83
2019-02-04T23:38:10.286Z,10.70
2019-02-04T23:40:39.539Z,10.40
2019-02-04T23:43:08.920Z,10.40
2019-02-04T23:45:38.182Z,11.07
2019-02-04T23:48:08.511Z,11.50
2019-02-04T23:50:38.248Z,11.60
2019-02-04T23:53:07.495Z,11.37
2019-02-04T23:55:36.685Z,10.20
2019-02-04T23:58:06.019Z,11.17
